Time;durP1;ratioP1;P1;durP2;ratioP2;P2;SDS_P1;SDS_P2;PMS_P1;PMS_P2;Temp;Humidity;BMP_temperature;BMP_pressure;BME280_temperature;BME280_humidity;BME280_pressure;Samples;Min_cycle;Max_cycle;Signal;HPM_P1;HPM_P2
2023/01/14 00:02:17;;;;;;;;;;;18.50;53.70;;;;;;5008817;28;19918;-53
2023/01/14 00:04:43;;;;;;;;;;;18.40;53.70;;;;;;5008338;28;19921;-52
2023/01/14 00:07:08;;;;;;;;;;;18.40;53.70;;;;;;4994093;28;20374;-52
2023/01/14 00:09:34;;;;;;;;;;;18.40;53.70;;;;;;5002696;28;19913;-53
2023/01/14 00:11:59;;;;;;;;;;;18.40;53.80;;;;;;5016181;28;20427;-52
2023/01/14 00:14:29;;;;;;;;;;;18.40;53.80;;;;;;4994539;28;20482;-53
2023/01/14 00:16:54;;;;;;;;;;;18.40;53.70;;;;;;4995315;28;20044;-53
2023/01/14 00:19:20;;;;;;;;;;;18.40;53.80;;;;;;5000210;28;20011;-53
2023/01/14 00:21:46;;;;;;;;;;;18.40;53.80;;;;;;5003956;28;19936;-53
2023/01/14 00:24:12;;;;;;;;;;;18.30;53.80;;;;;;5005862;28;19917;-53
2023/01/14 00:26:37;;;;;;;;;;;18.30;53.90;;;;;;5017597;28;19921;-53
2023/01/14 00:29:03;;;;;;;;;;;18.30;53.80;;;;;;4997065;28;19935;-53
2023/01/14 00:31:28;;;;;;;;;;;18.30;53.90;;;;;;4993795;28;19940;-53
2023/01/14 00:33:54;;;;;;;;;;;18.30;53.90;;;;;;4995608;28;19941;-52
2023/01/14 00:36:20;;;;;;;;;;;18.20;54.40;;;;;;5007940;28;19914;-53
2023/01/14 00:38:45;;;;;;;;;;;18.20;53.90;;;;;;5009098;28;19984;-52
2023/01/14 00:41:12;;;;;;;;;;;18.20;53.90;;;;;;5004872;28;20344;-52
2023/01/14 00:43:38;;;;;;;;;;;18.20;54.00;;;;;;5008598;28;19914;-51
2023/01/14 00:46:05;;;;;;;;;;;18.20;54.10;;;;;;5009532;28;20305;-52
2023/01/14 00:48:31;;;;;;;;;;;18.20;54.10;;;;;;5031671;28;20029;-51
2023/01/14 00:50:57;;;;;;;;;;;18.20;54.10;;;;;;5011401;28;19909;-53
2023/01/14 00:53:22;;;;;;;;;;;18.10;53.90;;;;;;5019886;28;19914;-52
2023/01/14 00:55:48;;;;;;;;;;;18.10;53.90;;;;;;5009821;28;19928;-53
2023/01/14 00:58:13;;;;;;;;;;;18.10;54.20;;;;;;4994499;28;20100;-53
2023/01/14 01:00:38;;;;;;;;;;;18.10;54.10;;;;;;5000528;28;19921;-53
2023/01/14 01:03:04;;;;;;;;;;;18.10;54.20;;;;;;5007758;28;19917;-53
2023/01/14 01:05:32;;;;;;;;;;;18.10;54.30;;;;;;4998903;28;19960;-53
2023/01/14 01:07:58;;;;;;;;;;;18.00;54.20;;;;;;5021643;28;19918;-52
2023/01/14 01:10:23;;;;;;;;;;;18.00;54.10;;;;;;5004931;28;19921;-53
2023/01/14 01:12:49;;;;;;;;;;;18.00;54.20;;;;;;4998897;28;19987;-52
2023/01/14 01:15:14;;;;;;;;;;;18.00;54.10;;;;;;5002725;28;19968;-52
2023/01/14 01:17:40;;;;;;;;;;;18.00;54.20;;;;;;5010366;28;19921;-53
2023/01/14 01:20:05;;;;;;;;;;;18.00;54.10;;;;;;5011784;28;19917;-52
2023/01/14 01:22:31;;;;;;;;;;;18.00;54.30;;;;;;5031784;28;19921;-52
2023/01/14 01:24:56;;;;;;;;;;;17.90;54.10;;;;;;5012063;28;19935;-52
2023/01/14 01:27:22;;;;;;;;;;;17.90;54.10;;;;;;5012324;28;19910;-53
2023/01/14 01:29:47;;;;;;;;;;;17.90;54.20;;;;;;5006628;28;19939;-52
2023/01/14 01:32:12;;;;;;;;;;;17.80;54.20;;;;;;4993151;28;19956;-53
2023/01/14 01:34:38;;;;;;;;;;;17.90;54.40;;;;;;4994543;28;19918;-52
2023/01/14 01:37:03;;;;;;;;;;;17.90;54.30;;;;;;5000282;28;19976;-53
2023/01/14 01:39:29;;;;;;;;;;;17.80;54.10;;;;;;5004151;28;19921;-53
2023/01/14 01:41:54;;;;;;;;;;;17.80;54.10;;;;;;5007969;28;19953;-53
2023/01/14 01:44:20;;;;;;;;;;;17.80;54.10;;;;;;5006623;28;19917;-52
2023/01/14 01:46:45;;;;;;;;;;;17.80;54.10;;;;;;4993759;28;19920;-52
2023/01/14 01:49:31;;;;;;;;;;;17.80;54.20;;;;;;4994061;28;19914;-52
2023/01/14 01:51:58;;;;;;;;;;;17.80;54.40;;;;;;5039200;28;19988;-52
2023/01/14 01:54:33;;;;;;;;;;;17.80;54.40;;;;;;5018922;28;19916;-52
2023/01/14 01:56:59;;;;;;;;;;;17.80;54.40;;;;;;5015209;28;19965;-52
2023/01/14 01:59:25;;;;;;;;;;;17.70;54.30;;;;;;5001249;28;20358;-53
2023/01/14 02:01:51;;;;;;;;;;;17.80;54.50;;;;;;5033431;28;20308;-53
2023/01/14 02:04:16;;;;;;;;;;;17.70;54.40;;;;;;5014301;28;19919;-52
2023/01/14 02:06:41;;;;;;;;;;;17.70;54.30;;;;;;5006929;28;19914;-53
2023/01/14 02:09:07;;;;;;;;;;;17.70;54.50;;;;;;5024258;28;19918;-53
2023/01/14 02:11:49;;;;;;;;;;;17.70;54.40;;;;;;5015647;28;20366;-52
2023/01/14 02:14:17;;;;;;;;;;;17.70;54.20;;;;;;5029233;28;20007;-53
2023/01/14 02:16:42;;;;;;;;;;;17.80;54.20;;;;;;5016267;28;19918;-52
2023/01/14 02:19:08;;;;;;;;;;;17.90;54.30;;;;;;5015730;28;20373;-53
2023/01/14 02:21:34;;;;;;;;;;;18.00;54.20;;;;;;5020662;28;19913;-53
2023/01/14 02:24:06;;;;;;;;;;;18.10;53.80;;;;;;5011249;28;19918;-52
2023/01/14 02:26:40;;;;;;;;;;;18.30;53.50;;;;;;5012904;28;19913;-53
2023/01/14 02:29:25;;;;;;;;;;;18.60;53.10;;;;;;5014188;28;19921;-52
2023/01/14 02:31:54;;;;;;;;;;;18.80;52.50;;;;;;5015595;28;19914;-53
2023/01/14 02:34:32;;;;;;;;;;;19.10;51.90;;;;;;5047174;28;22269;-52
2023/01/14 02:37:09;;;;;;;;;;;19.20;51.50;;;;;;5020806;28;19979;-52
2023/01/14 02:39:34;;;;;;;;;;;19.40;51.20;;;;;;5024222;28;19922;-52
2023/01/14 02:45:05;;;;;;;;;;;19.30;51.20;;;;;;5050365;28;19925;-53
2023/01/14 02:47:31;;;;;;;;;;;19.00;51.50;;;;;;4996964;28;19921;-53
2023/01/14 02:49:56;;;;;;;;;;;18.90;52.20;;;;;;5018323;28;19918;-53
2023/01/14 02:52:22;;;;;;;;;;;18.80;52.40;;;;;;5027525;28;19918;-52
2023/01/14 02:55:00;;;;;;;;;;;18.70;52.50;;;;;;5004159;28;20300;-53
2023/01/14 02:57:38;;;;;;;;;;;18.60;52.10;;;;;;5001001;28;19957;-53
2023/01/14 03:00:04;;;;;;;;;;;18.60;52.20;;;;;;5006601;28;19914;-52
2023/01/14 03:02:43;;;;;;;;;;;18.50;52.60;;;;;;5010798;28;19924;-52
2023/01/14 03:05:17;;;;;;;;;;;18.40;52.30;;;;;;5043424;28;20000;-52
2023/01/14 03:08:09;;;;;;;;;;;18.40;52.90;;;;;;5014854;28;20285;-52
2023/01/14 03:10:45;;;;;;;;;;;18.30;52.80;;;;;;5018296;28;19920;-52
2023/01/14 03:13:17;;;;;;;;;;;18.30;53.10;;;;;;5005465;28;19914;-52
2023/01/14 03:15:53;;;;;;;;;;;18.30;53.40;;;;;;5012694;28;19949;-52
2023/01/14 03:18:18;;;;;;;;;;;18.20;53.40;;;;;;5037773;28;19917;-52
2023/01/14 03:20:46;;;;;;;;;;;18.20;53.40;;;;;;5006644;28;20345;-53
2023/01/14 03:23:13;;;;;;;;;;;18.10;53.40;;;;;;5007431;28;19925;-53
2023/01/14 03:25:39;;;;;;;;;;;18.10;53.40;;;;;;5030426;28;19921;-51
2023/01/14 03:28:05;;;;;;;;;;;18.00;53.40;;;;;;5028127;28;19914;-52
2023/01/14 03:30:32;;;;;;;;;;;18.00;53.40;;;;;;5027067;28;20380;-52
2023/01/14 03:33:10;;;;;;;;;;;18.00;53.40;;;;;;4995279;28;19914;-52
2023/01/14 03:35:39;;;;;;;;;;;18.00;53.40;;;;;;5040448;28;19914;-52
2023/01/14 03:38:10;;;;;;;;;;;18.10;53.40;;;;;;5035405;28;19965;-52
2023/01/14 03:40:36;;;;;;;;;;;18.10;53.20;;;;;;5035889;28;19913;-52
2023/01/14 03:43:04;;;;;;;;;;;18.10;53.40;;;;;;5033141;28;20353;-52
2023/01/14 03:45:32;;;;;;;;;;;18.20;53.40;;;;;;5001575;28;20472;-51
2023/01/14 03:47:57;;;;;;;;;;;18.20;53.30;;;;;;4994901;28;20365;-52
2023/01/14 03:50:23;;;;;;;;;;;18.20;53.10;;;;;;5029959;28;19968;-52
2023/01/14 03:52:52;;;;;;;;;;;18.20;53.20;;;;;;5039885;28;20321;-52
2023/01/14 03:55:24;;;;;;;;;;;18.10;53.40;;;;;;5028299;28;19937;-52
2023/01/14 03:57:53;;;;;;;;;;;18.10;53.40;;;;;;5017432;28;20072;-52
2023/01/14 04:00:21;;;;;;;;;;;18.10;53.40;;;;;;5035045;28;19925;-52
2023/01/14 04:02:46;;;;;;;;;;;18.10;53.40;;;;;;5045530;28;19921;-52
2023/01/14 04:05:12;;;;;;;;;;;18.10;53.30;;;;;;5038142;28;19922;-52
2023/01/14 04:07:37;;;;;;;;;;;18.10;53.20;;;;;;4994255;28;19913;-52
2023/01/14 04:10:03;;;;;;;;;;;18.20;53.00;;;;;;4999810;28;19917;-52
2023/01/14 04:12:28;;;;;;;;;;;18.10;53.00;;;;;;5008688;28;19917;-53
2023/01/14 04:17:37;;;;;;;;;;;18.10;53.10;;;;;;4995804;28;19984;-53
2023/01/14 04:20:04;;;;;;;;;;;18.10;53.20;;;;;;5013253;28;19910;-53
2023/01/14 04:22:29;;;;;;;;;;;18.00;53.00;;;;;;5011948;28;19971;-53
2023/01/14 04:24:54;;;;;;;;;;;18.00;53.30;;;;;;4999797;28;19914;-53
2023/01/14 04:27:20;;;;;;;;;;;18.00;53.30;;;;;;5010149;28;19917;-53
2023/01/14 04:29:45;;;;;;;;;;;18.00;53.30;;;;;;5000751;28;19914;-53
2023/01/14 04:32:11;;;;;;;;;;;18.10;53.20;;;;;;5013722;28;19957;-53
2023/01/14 04:34:36;;;;;;;;;;;18.10;52.80;;;;;;5010226;28;19918;-53
2023/01/14 04:37:02;;;;;;;;;;;18.10;52.70;;;;;;5012290;28;20336;-53
2023/01/14 04:39:27;;;;;;;;;;;18.10;52.50;;;;;;5014457;28;20318;-53
2023/01/14 04:44:36;;;;;;;;;;;18.20;52.50;;;;;;4996094;28;19984;-53
2023/01/14 04:47:02;;;;;;;;;;;18.20;52.50;;;;;;5026087;28;19913;-53
2023/01/14 04:49:27;;;;;;;;;;;18.20;52.50;;;;;;5006184;28;19976;-53
2023/01/14 04:51:53;;;;;;;;;;;18.20;52.40;;;;;;5008638;28;19914;-53
2023/01/14 04:54:18;;;;;;;;;;;18.10;52.60;;;;;;5013358;28;19996;-53
2023/01/14 04:56:44;;;;;;;;;;;18.20;52.70;;;;;;5013982;28;20369;-52
2023/01/14 04:59:10;;;;;;;;;;;18.10;52.80;;;;;;4993519;28;20366;-53
2023/01/14 05:01:35;;;;;;;;;;;18.10;52.90;;;;;;4999586;28;19956;-53
2023/01/14 05:04:01;;;;;;;;;;;18.10;52.90;;;;;;5013162;28;19917;-53
2023/01/14 05:06:27;;;;;;;;;;;18.00;53.00;;;;;;4998323;28;19918;-53
2023/01/14 05:08:52;;;;;;;;;;;18.00;52.90;;;;;;4993639;28;19957;-53
2023/01/14 05:11:18;;;;;;;;;;;18.00;53.00;;;;;;4998877;28;19952;-53
2023/01/14 05:13:43;;;;;;;;;;;18.00;52.90;;;;;;5013089;28;19948;-53
2023/01/14 05:16:09;;;;;;;;;;;18.00;52.80;;;;;;4993339;28;19917;-53
2023/01/14 05:18:34;;;;;;;;;;;18.00;52.70;;;;;;4996458;28;19918;-53
2023/01/14 05:21:00;;;;;;;;;;;18.00;52.80;;;;;;5010553;28;19913;-53
2023/01/14 05:23:25;;;;;;;;;;;18.00;52.80;;;;;;5008430;28;19967;-53
2023/01/14 05:25:51;;;;;;;;;;;18.10;52.80;;;;;;5010512;28;19917;-53
2023/01/14 05:28:16;;;;;;;;;;;18.10;52.70;;;;;;5012459;28;19918;-53
2023/01/14 05:30:42;;;;;;;;;;;18.10;52.60;;;;;;5010691;28;19921;-52
2023/01/14 05:33:07;;;;;;;;;;;18.10;52.50;;;;;;5012874;28;19913;-52
2023/01/14 05:35:33;;;;;;;;;;;18.20;52.50;;;;;;5005100;28;19914;-51
2023/01/14 05:37:58;;;;;;;;;;;18.20;52.50;;;;;;5021990;28;20308;-52
2023/01/14 05:40:24;;;;;;;;;;;18.20;52.40;;;;;;5004848;28;20342;-52
2023/01/14 05:45:48;;;;;;;;;;;18.10;52.40;;;;;;5000105;28;19928;-52
2023/01/14 05:48:16;;;;;;;;;;;18.20;52.40;;;;;;5009398;28;19913;-52
2023/01/14 05:50:42;;;;;;;;;;;18.10;52.40;;;;;;4997629;28;19918;-52
2023/01/14 05:53:07;;;;;;;;;;;18.10;52.40;;;;;;5017195;28;19913;-52
2023/01/14 05:55:33;;;;;;;;;;;18.10;52.40;;;;;;4997713;28;19959;-52
2023/01/14 05:57:59;;;;;;;;;;;18.10;52.50;;;;;;5010615;28;19976;-52
2023/01/14 06:08:39;;;;;;;;;;;18.00;52.70;;;;;;5014759;28;19940;-52
2023/01/14 06:11:07;;;;;;;;;;;18.00;52.90;;;;;;5029983;28;20369;-52
2023/01/14 06:13:34;;;;;;;;;;;18.00;52.90;;;;;;5003612;28;19914;-52
2023/01/14 06:16:02;;;;;;;;;;;18.00;52.70;;;;;;4998150;28;20337;-53
2023/01/14 06:18:37;;;;;;;;;;;18.10;52.70;;;;;;5001593;28;19972;-52
2023/01/14 06:21:02;;;;;;;;;;;18.10;52.50;;;;;;5009077;28;20023;-52
2023/01/14 06:23:28;;;;;;;;;;;18.10;52.50;;;;;;5021955;28;20019;-53
2023/01/14 06:25:53;;;;;;;;;;;18.10;52.30;;;;;;5018582;28;19919;-53
2023/01/14 06:28:19;;;;;;;;;;;18.20;52.50;;;;;;5005430;28;19964;-53
2023/01/14 06:30:44;;;;;;;;;;;18.20;52.30;;;;;;4997461;28;19914;-52
2023/01/14 06:33:10;;;;;;;;;;;18.20;52.40;;;;;;5011895;28;19914;-53
2023/01/14 06:35:39;;;;;;;;;;;18.10;52.50;;;;;;5004226;28;19976;-53
2023/01/14 06:38:04;;;;;;;;;;;18.00;52.50;;;;;;5021090;28;19924;-52
2023/01/14 06:40:30;;;;;;;;;;;18.00;52.50;;;;;;5013855;28;20351;-52
2023/01/14 06:42:55;;;;;;;;;;;18.00;52.50;;;;;;5015567;28;19916;-52
2023/01/14 06:45:22;;;;;;;;;;;18.00;52.60;;;;;;5009504;28;19920;-52
2023/01/14 06:47:47;;;;;;;;;;;18.00;52.70;;;;;;5015676;28;19972;-52
2023/01/14 06:50:14;;;;;;;;;;;18.00;52.80;;;;;;5005793;28;19949;-52
2023/01/14 06:52:39;;;;;;;;;;;18.00;52.70;;;;;;5032558;28;19921;-51
2023/01/14 06:55:05;;;;;;;;;;;18.00;52.70;;;;;;5035047;28;19975;-52
2023/01/14 06:57:30;;;;;;;;;;;17.90;52.80;;;;;;5013258;28;19944;-52
2023/01/14 06:59:56;;;;;;;;;;;17.90;52.70;;;;;;5013852;28;19913;-52
2023/01/14 07:02:21;;;;;;;;;;;17.90;53.10;;;;;;4999002;28;20385;-52
2023/01/14 07:04:47;;;;;;;;;;;17.90;52.90;;;;;;5010642;28;20389;-53
2023/01/14 07:07:12;;;;;;;;;;;17.90;52.80;;;;;;5012641;28;20270;-53
2023/01/14 07:09:38;;;;;;;;;;;17.90;52.80;;;;;;5015301;28;19910;-52
2023/01/14 07:12:03;;;;;;;;;;;17.90;52.70;;;;;;5012855;28;19969;-51
2023/01/14 07:14:28;;;;;;;;;;;17.90;52.80;;;;;;4997905;28;19942;-51
2023/01/14 07:16:54;;;;;;;;;;;17.90;52.80;;;;;;5006743;28;19932;-51
2023/01/14 07:19:19;;;;;;;;;;;17.90;52.70;;;;;;5010411;28;19984;-52
2023/01/14 07:21:45;;;;;;;;;;;17.90;52.80;;;;;;5012062;28;19921;-52
2023/01/14 07:24:10;;;;;;;;;;;17.90;52.70;;;;;;5004192;28;19964;-52
2023/01/14 07:26:36;;;;;;;;;;;17.90;52.80;;;;;;4999583;28;19944;-53
2023/01/14 07:29:01;;;;;;;;;;;17.90;52.80;;;;;;5008966;28;19924;-53
2023/01/14 07:31:27;;;;;;;;;;;17.80;52.90;;;;;;5002421;28;20011;-52
2023/01/14 07:33:52;;;;;;;;;;;17.80;53.00;;;;;;5013926;28;19917;-52
2023/01/14 07:36:18;;;;;;;;;;;17.80;52.90;;;;;;5001450;28;19948;-52
2023/01/14 07:38:43;;;;;;;;;;;17.90;52.90;;;;;;5012004;28;19964;-54
2023/01/14 07:41:09;;;;;;;;;;;17.90;52.70;;;;;;5002300;28;19918;-51
2023/01/14 07:43:35;;;;;;;;;;;17.90;52.70;;;;;;5012745;28;19913;-51
2023/01/14 07:46:00;;;;;;;;;;;18.00;52.60;;;;;;5000756;28;19917;-52
2023/01/14 07:48:26;;;;;;;;;;;17.90;52.60;;;;;;5002328;28;19918;-52
2023/01/14 07:50:52;;;;;;;;;;;17.90;52.50;;;;;;5012993;28;19917;-52
2023/01/14 07:53:17;;;;;;;;;;;17.90;52.50;;;;;;5009474;28;19956;-52
2023/01/14 07:55:43;;;;;;;;;;;18.00;52.50;;;;;;5007850;28;19933;-53
2023/01/14 07:58:10;;;;;;;;;;;18.00;52.50;;;;;;4996908;28;19924;-53
2023/01/14 08:00:36;;;;;;;;;;;18.00;52.50;;;;;;5007005;28;19945;-53
2023/01/14 08:03:01;;;;;;;;;;;18.00;52.50;;;;;;5008861;28;19969;-53
2023/01/14 08:05:26;;;;;;;;;;;17.90;52.50;;;;;;4994721;28;19917;-53
2023/01/14 08:07:52;;;;;;;;;;;18.00;52.40;;;;;;5000726;28;19914;-53
2023/01/14 08:10:17;;;;;;;;;;;17.90;52.50;;;;;;4994813;28;19913;-53
2023/01/14 08:12:43;;;;;;;;;;;17.90;52.50;;;;;;4995679;28;19920;-53
2023/01/14 08:15:09;;;;;;;;;;;17.90;52.50;;;;;;4997544;28;19963;-53
2023/01/14 08:17:34;;;;;;;;;;;17.90;52.50;;;;;;5032439;28;20400;-53
2023/01/14 08:19:59;;;;;;;;;;;17.90;52.60;;;;;;5003840;28;20016;-53
2023/01/14 08:22:26;;;;;;;;;;;17.90;52.50;;;;;;5010591;28;19972;-53
2023/01/14 08:24:52;;;;;;;;;;;17.90;52.50;;;;;;5007984;28;19922;-53
2023/01/14 08:27:17;;;;;;;;;;;17.90;52.40;;;;;;4998338;28;19920;-53
2023/01/14 08:29:43;;;;;;;;;;;17.90;52.40;;;;;;4997570;28;20305;-53
2023/01/14 08:32:09;;;;;;;;;;;18.00;52.50;;;;;;4998051;28;19917;-53
2023/01/14 08:34:34;;;;;;;;;;;17.90;52.40;;;;;;5007765;28;20396;-53
2023/01/14 08:37:00;;;;;;;;;;;18.00;52.30;;;;;;4995984;28;20378;-53
2023/01/14 08:39:25;;;;;;;;;;;18.00;52.30;;;;;;5007575;28;20433;-53
2023/01/14 08:41:50;;;;;;;;;;;17.90;52.30;;;;;;5009306;28;19913;-53
2023/01/14 08:44:16;;;;;;;;;;;17.90;52.40;;;;;;5011081;28;20036;-53
2023/01/14 08:46:42;;;;;;;;;;;17.90;52.50;;;;;;5004980;28;20009;-53
2023/01/14 08:49:09;;;;;;;;;;;17.80;52.50;;;;;;5011839;28;19918;-53
2023/01/14 08:51:34;;;;;;;;;;;17.80;52.60;;;;;;5014517;28;19914;-53
2023/01/14 08:54:01;;;;;;;;;;;17.80;52.60;;;;;;5012583;28;19920;-53
2023/01/14 08:56:26;;;;;;;;;;;17.70;52.70;;;;;;5013196;28;19921;-53
2023/01/14 08:58:52;;;;;;;;;;;17.70;52.80;;;;;;5006961;28;19918;-53
2023/01/14 09:01:17;;;;;;;;;;;17.70;52.70;;;;;;4996825;28;19914;-52
2023/01/14 09:03:45;;;;;;;;;;;17.70;52.60;;;;;;4994299;28;19960;-53
2023/01/14 09:06:11;;;;;;;;;;;17.70;52.60;;;;;;5015694;28;20000;-53
2023/01/14 09:17:04;;;;;;;;;;;17.70;52.70;;;;;;5003416;28;20384;-53
2023/01/14 09:19:30;;;;;;;;;;;17.70;52.60;;;;;;5010771;28;20377;-53
2023/01/14 09:21:56;;;;;;;;;;;17.70;52.50;;;;;;5002294;28;19971;-53
2023/01/14 09:24:21;;;;;;;;;;;17.70;52.40;;;;;;4996433;28;19918;-53
2023/01/14 09:26:47;;;;;;;;;;;17.80;52.40;;;;;;5005945;28;20007;-53
2023/01/14 09:29:12;;;;;;;;;;;17.70;52.30;;;;;;5029110;28;19924;-53
2023/01/14 09:31:37;;;;;;;;;;;17.80;52.30;;;;;;5026613;28;19918;-53
2023/01/14 09:34:03;;;;;;;;;;;17.80;52.20;;;;;;5001755;28;19914;-53
2023/01/14 09:36:29;;;;;;;;;;;17.80;52.20;;;;;;4999814;28;19953;-53
2023/01/14 09:38:55;;;;;;;;;;;17.80;52.20;;;;;;5011159;28;19925;-53
2023/01/14 09:41:30;;;;;;;;;;;17.90;52.20;;;;;;5004329;28;19914;-53
2023/01/14 09:43:56;;;;;;;;;;;17.90;52.20;;;;;;5038639;28;20317;-53
2023/01/14 09:46:23;;;;;;;;;;;17.80;52.20;;;;;;4993765;28;19988;-53
2023/01/14 09:48:48;;;;;;;;;;;17.80;52.20;;;;;;5029530;28;19910;-53
2023/01/14 09:51:19;;;;;;;;;;;17.70;52.10;;;;;;5011750;28;20013;-53
2023/01/14 09:53:50;;;;;;;;;;;17.80;52.30;;;;;;5005934;28;20451;-53
2023/01/14 09:56:18;;;;;;;;;;;17.70;52.20;;;;;;5004535;28;19913;-53
2023/01/14 09:58:49;;;;;;;;;;;17.70;52.40;;;;;;5044392;28;20012;-53
2023/01/14 10:01:33;;;;;;;;;;;17.70;52.30;;;;;;5051450;28;20001;-53
2023/01/14 10:03:59;;;;;;;;;;;17.70;52.40;;;;;;5032453;28;19999;-53
2023/01/14 10:06:24;;;;;;;;;;;17.60;52.30;;;;;;5022926;28;20313;-53
2023/01/14 10:09:02;;;;;;;;;;;17.60;52.20;;;;;;5012646;28;19909;-53
2023/01/14 10:11:28;;;;;;;;;;;17.60;52.30;;;;;;5009676;28;19914;-53
2023/01/14 10:13:59;;;;;;;;;;;17.60;52.20;;;;;;5014686;28;19959;-53
2023/01/14 10:16:45;;;;;;;;;;;17.60;52.20;;;;;;5042499;28;19920;-53
2023/01/14 10:19:15;;;;;;;;;;;17.60;52.20;;;;;;5029788;28;20476;-53
2023/01/14 10:21:47;;;;;;;;;;;17.50;52.10;;;;;;5051701;28;20008;-52
2023/01/14 10:24:12;;;;;;;;;;;17.50;52.30;;;;;;5020167;28;19975;-53
2023/01/14 10:26:38;;;;;;;;;;;17.50;52.30;;;;;;5014324;28;19910;-53
2023/01/14 10:29:10;;;;;;;;;;;17.50;52.20;;;;;;5015150;28;20394;-52
2023/01/14 10:31:36;;;;;;;;;;;17.50;52.20;;;;;;5046326;28;19974;-53
2023/01/14 10:34:01;;;;;;;;;;;17.50;52.20;;;;;;5037877;28;19943;-53
2023/01/14 10:36:29;;;;;;;;;;;17.50;52.20;;;;;;5005795;28;19925;-52
2023/01/14 10:38:55;;;;;;;;;;;17.40;52.20;;;;;;5007362;28;19918;-53
2023/01/14 10:41:48;;;;;;;;;;;17.40;52.20;;;;;;5002181;28;20416;-52
2023/01/14 10:44:05;;;;;;;;;;;17.50;52.20;;;;;;5036008;28;19928;-52
2023/01/14 10:46:31;;;;;;;;;;;17.50;52.20;;;;;;5000997;28;20254;-52
2023/01/14 10:48:57;;;;;;;;;;;17.40;52.10;;;;;;5026443;28;19999;-53
2023/01/14 10:51:35;;;;;;;;;;;17.50;52.10;;;;;;5033256;28;19917;-52
2023/01/14 10:54:08;;;;;;;;;;;17.50;52.00;;;;;;5015612;28;19913;-52
2023/01/14 10:56:33;;;;;;;;;;;17.50;52.10;;;;;;5014116;28;19964;-52
2023/01/14 10:58:58;;;;;;;;;;;17.40;52.00;;;;;;5007242;28;20450;-52
2023/01/14 11:01:24;;;;;;;;;;;17.50;52.10;;;;;;5046537;28;19937;-52
2023/01/14 11:03:49;;;;;;;;;;;17.40;52.00;;;;;;5046470;28;19917;-52
2023/01/14 11:06:15;;;;;;;;;;;17.50;52.10;;;;;;5015196;28;19917;-53
2023/01/14 11:08:50;;;;;;;;;;;17.50;51.90;;;;;;5046045;28;20373;-51
2023/01/14 11:11:25;;;;;;;;;;;17.50;51.80;;;;;;5046014;28;19909;-53
2023/01/14 11:13:53;;;;;;;;;;;17.60;51.70;;;;;;5046524;28;19921;-52
2023/01/14 11:16:21;;;;;;;;;;;17.60;51.70;;;;;;5018957;28;20334;-52
2023/01/14 11:19:00;;;;;;;;;;;17.60;51.90;;;;;;5003034;28;20380;-53
2023/01/14 11:21:26;;;;;;;;;;;17.60;51.60;;;;;;4999330;28;19910;-50
2023/01/14 11:23:55;;;;;;;;;;;17.60;51.60;;;;;;4996310;28;19928;-53
2023/01/14 11:26:25;;;;;;;;;;;17.70;51.30;;;;;;4994613;28;19917;-52
2023/01/14 11:28:50;;;;;;;;;;;17.80;51.20;;;;;;5053016;28;20267;-54
2023/01/14 11:31:20;;;;;;;;;;;17.80;51.00;;;;;;5016018;28;19920;-53
2023/01/14 11:33:49;;;;;;;;;;;17.90;50.90;;;;;;5011904;28;20373;-53
2023/01/14 11:36:24;;;;;;;;;;;17.90;50.90;;;;;;5044927;28;19909;-53
2023/01/14 11:38:50;;;;;;;;;;;18.20;50.90;;;;;;5014478;28;19918;-53
2023/01/14 11:41:35;;;;;;;;;;;18.90;49.40;;;;;;5014023;28;20266;-53
2023/01/14 11:44:09;;;;;;;;;;;19.60;47.90;;;;;;5046275;28;19986;-53
2023/01/14 11:46:36;;;;;;;;;;;20.30;46.60;;;;;;4998508;28;20333;-53
2023/01/14 11:49:21;;;;;;;;;;;20.70;46.40;;;;;;5017292;28;20293;-53
2023/01/14 11:51:57;;;;;;;;;;;21.10;45.30;;;;;;5029656;28;20278;-53
2023/01/14 11:54:22;;;;;;;;;;;21.50;44.40;;;;;;5014452;28;19920;-53
2023/01/14 11:56:48;;;;;;;;;;;21.80;43.80;;;;;;5013880;28;19913;-53
2023/01/14 11:59:20;;;;;;;;;;;22.10;43.40;;;;;;5014352;28;20004;-53
2023/01/14 12:01:47;;;;;;;;;;;22.20;43.00;;;;;;5004106;28;19992;-53
2023/01/14 12:04:18;;;;;;;;;;;22.30;42.90;;;;;;5054127;28;19923;-53
2023/01/14 12:06:49;;;;;;;;;;;22.40;42.80;;;;;;5012351;28;19928;-53
2023/01/14 12:09:21;;;;;;;;;;;22.50;42.60;;;;;;5045983;28;19945;-53
2023/01/14 12:11:53;;;;;;;;;;;22.60;42.40;;;;;;5045596;28;20281;-53
2023/01/14 12:17:08;;;;;;;;;;;22.80;42.20;;;;;;5040392;28;19917;-53
2023/01/14 12:19:38;;;;;;;;;;;22.90;42.20;;;;;;5012484;28;19918;-53
2023/01/14 12:22:22;;;;;;;;;;;22.90;42.00;;;;;;5014338;28;19925;-53
2023/01/14 12:25:03;;;;;;;;;;;23.00;41.90;;;;;;5013963;28;19963;-53
2023/01/14 12:27:43;;;;;;;;;;;23.00;41.90;;;;;;5013658;28;19996;-53
2023/01/14 12:30:09;;;;;;;;;;;23.10;41.80;;;;;;5024360;28;19921;-53
2023/01/14 12:32:34;;;;;;;;;;;23.10;41.60;;;;;;5008571;28;19921;-53
2023/01/14 12:35:00;;;;;;;;;;;23.10;41.80;;;;;;4993807;28;19992;-53
2023/01/14 12:37:33;;;;;;;;;;;23.10;41.80;;;;;;4994392;28;19924;-53
2023/01/14 12:45:50;;;;;;;;;;;23.20;41.70;;;;;;5033454;28;19920;-53
2023/01/14 12:48:19;;;;;;;;;;;23.20;41.70;;;;;;5003758;28;19914;-52
2023/01/14 12:50:54;;;;;;;;;;;23.20;41.60;;;;;;5007954;28;19914;-53
2023/01/14 12:53:21;;;;;;;;;;;23.20;41.60;;;;;;5032280;28;20173;-52
2023/01/14 12:55:47;;;;;;;;;;;23.20;41.60;;;;;;4996935;28;19979;-52
2023/01/14 12:58:19;;;;;;;;;;;23.20;41.60;;;;;;5011032;28;19921;-53
2023/01/14 13:00:54;;;;;;;;;;;23.20;41.60;;;;;;5044415;28;19957;-53
2023/01/14 13:03:29;;;;;;;;;;;23.20;41.60;;;;;;5045033;28;19913;-53
2023/01/14 13:05:55;;;;;;;;;;;23.20;41.60;;;;;;5021629;28;20007;-52
2023/01/14 13:08:24;;;;;;;;;;;23.20;41.80;;;;;;5032688;28;19909;-53
2023/01/14 13:10:56;;;;;;;;;;;23.30;41.70;;;;;;4994877;28;20009;-53
2023/01/14 13:13:22;;;;;;;;;;;23.20;41.80;;;;;;5001730;28;20008;-53
2023/01/14 13:15:48;;;;;;;;;;;23.30;41.90;;;;;;5001234;28;19920;-52
2023/01/14 13:18:32;;;;;;;;;;;23.30;41.90;;;;;;5011222;28;19913;-53
2023/01/14 13:20:57;;;;;;;;;;;23.30;42.00;;;;;;4997431;28;20369;-53
2023/01/14 13:23:35;;;;;;;;;;;23.30;42.10;;;;;;5008969;28;19925;-53
2023/01/14 13:26:00;;;;;;;;;;;23.30;42.20;;;;;;5011222;28;20000;-53
2023/01/14 13:28:26;;;;;;;;;;;23.20;42.50;;;;;;5007743;28;19920;-53
2023/01/14 13:31:04;;;;;;;;;;;23.20;42.60;;;;;;5008707;28;20013;-53
2023/01/14 13:33:32;;;;;;;;;;;23.20;42.70;;;;;;5017830;28;20396;-52
2023/01/14 13:36:10;;;;;;;;;;;23.10;42.90;;;;;;5027611;28;19959;-53
2023/01/14 13:38:39;;;;;;;;;;;23.10;42.90;;;;;;5007756;28;19939;-53
2023/01/14 13:41:07;;;;;;;;;;;23.10;43.10;;;;;;4991706;28;19913;-53
2023/01/14 13:43:37;;;;;;;;;;;23.00;43.10;;;;;;5026837;28;19924;-52
2023/01/14 13:46:03;;;;;;;;;;;23.00;43.20;;;;;;5030737;28;19918;-54
2023/01/14 13:48:32;;;;;;;;;;;23.00;43.30;;;;;;4993897;28;20186;-53
2023/01/14 13:51:23;;;;;;;;;;;23.00;43.30;;;;;;5006575;28;19925;-53
2023/01/14 13:53:50;;;;;;;;;;;23.00;43.10;;;;;;4997923;28;19913;-53
2023/01/14 13:56:19;;;;;;;;;;;23.00;43.10;;;;;;5033229;28;20020;-53
2023/01/14 13:58:47;;;;;;;;;;;23.10;43.20;;;;;;5013000;28;19983;-53
2023/01/14 14:01:31;;;;;;;;;;;23.10;43.00;;;;;;5035859;28;19953;-53
2023/01/14 14:03:57;;;;;;;;;;;23.20;42.90;;;;;;5004680;28;19992;-53
2023/01/14 14:06:22;;;;;;;;;;;23.20;42.70;;;;;;5013655;28;19913;-53
2023/01/14 14:08:57;;;;;;;;;;;23.30;42.70;;;;;;5002668;28;20275;-54
2023/01/14 14:11:23;;;;;;;;;;;23.20;42.60;;;;;;5043690;28;19967;-53
2023/01/14 14:14:03;;;;;;;;;;;23.20;42.90;;;;;;5016299;28;19910;-53
2023/01/14 14:16:46;;;;;;;;;;;23.20;43.00;;;;;;5030873;28;20012;-52
2023/01/14 14:19:16;;;;;;;;;;;23.20;43.00;;;;;;5002598;28;19926;-54
2023/01/14 14:21:44;;;;;;;;;;;23.10;43.00;;;;;;5032908;28;19920;-54
2023/01/14 14:24:15;;;;;;;;;;;23.20;43.00;;;;;;5007853;28;19921;-52
2023/01/14 14:26:41;;;;;;;;;;;23.20;43.00;;;;;;5045191;28;19920;-53
2023/01/14 14:29:07;;;;;;;;;;;23.20;42.90;;;;;;5039607;28;19921;-53
2023/01/14 14:31:34;;;;;;;;;;;23.30;42.90;;;;;;5045615;28;19918;-53
2023/01/14 14:34:00;;;;;;;;;;;23.30;42.80;;;;;;5035502;28;19914;-53
2023/01/14 14:36:27;;;;;;;;;;;23.40;42.80;;;;;;5006906;28;19960;-53
2023/01/14 14:38:56;;;;;;;;;;;23.40;42.80;;;;;;4998814;28;19957;-53
2023/01/14 14:41:24;;;;;;;;;;;23.40;42.80;;;;;;4995415;28;19914;-53
2023/01/14 14:44:08;;;;;;;;;;;23.40;42.60;;;;;;4996977;28;19914;-53
2023/01/14 14:46:33;;;;;;;;;;;23.40;42.70;;;;;;5005554;28;20026;-54
2023/01/14 14:49:02;;;;;;;;;;;23.50;42.70;;;;;;5010353;28;19921;-53
2023/01/14 14:51:28;;;;;;;;;;;23.50;42.60;;;;;;5038127;28;19949;-53
2023/01/14 14:53:54;;;;;;;;;;;23.60;42.50;;;;;;5015714;28;19914;-53
2023/01/14 14:56:20;;;;;;;;;;;23.70;42.50;;;;;;5014601;28;20278;-53
2023/01/14 14:58:45;;;;;;;;;;;23.70;42.20;;;;;;5001190;28;19918;-53